Time;durP1;ratioP1;P1;durP2;ratioP2;P2;SDS_P1;SDS_P2;PMS_P1;PMS_P2;Temp;Humidity;BMP_temperature;BMP_pressure;BME280_temperature;BME280_humidity;BME280_pressure;Samples;Min_cycle;Max_cycle;Signal;HPM_P1;HPM_P2
2022/06/24 00:01:38;;;;;;;1.90;1.60;;;27.80;54.30;;;;;;5027364;28;20566;-44
2022/06/24 00:04:04;;;;;;;2.43;1.20;;;27.70;55.30;;;;;;5024449;28;21010;-45
2022/06/24 00:06:47;;;;;;;2.83;2.03;;;27.60;55.30;;;;;;5020525;28;20574;-44
2022/06/24 00:09:18;;;;;;;2.67;1.63;;;27.40;56.00;;;;;;5020977;28;20537;-45
2022/06/24 00:11:44;;;;;;;3.97;1.50;;;27.50;56.00;;;;;;5019606;28;20946;-45
2022/06/24 00:14:15;;;;;;;5.20;1.57;;;27.50;55.60;;;;;;5022370;28;20531;-44
2022/06/24 00:17:10;;;;;;;4.33;1.60;;;27.60;55.60;;;;;;5022870;28;20510;-44
2022/06/24 00:19:58;;;;;;;2.80;1.30;;;27.70;55.90;;;;;;5016506;28;20535;-45
2022/06/24 00:22:25;;;;;;;1.60;1.10;;;27.50;56.40;;;;;;5024443;28;20541;-46
2022/06/24 00:25:13;;;;;;;4.27;1.80;;;27.60;55.70;;;;;;5018746;28;20448;-45
2022/06/24 00:27:40;;;;;;;4.03;1.33;;;27.60;55.80;;;;;;5019465;28;21309;-45
2022/06/24 00:30:14;;;;;;;1.40;1.30;;;27.60;56.00;;;;;;5020750;28;20508;-44
2022/06/24 00:32:41;;;;;;;3.63;1.67;;;27.30;56.90;;;;;;5020523;28;20805;-44
2022/06/24 00:35:12;;;;;;;4.67;1.40;;;26.70;58.20;;;;;;5018041;28;20448;-44
2022/06/24 00:37:40;;;;;;;4.70;1.57;;;26.30;59.50;;;;;;5025498;28;20470;-47
2022/06/24 00:40:11;;;;;;;3.00;1.40;;;26.40;59.30;;;;;;5017654;28;20480;-44
2022/06/24 00:42:39;;;;;;;2.40;1.60;;;26.40;59.20;;;;;;5021353;28;21656;-44
2022/06/24 00:45:20;;;;;;;3.47;1.30;;;26.40;59.20;;;;;;5026709;28;20427;-44
2022/06/24 00:47:47;;;;;;;3.30;1.90;;;26.20;59.70;;;;;;5021894;28;20452;-47
2022/06/24 00:50:24;;;;;;;2.60;1.53;;;25.90;60.70;;;;;;5023256;28;20442;-44
2022/06/24 00:52:55;;;;;;;4.37;1.97;;;26.00;60.80;;;;;;5024312;28;20443;-47
2022/06/24 00:55:27;;;;;;;4.87;1.73;;;26.20;60.00;;;;;;5029137;28;20455;-44
2022/06/24 00:57:53;;;;;;;4.93;1.80;;;26.40;59.40;;;;;;5023216;28;20474;-47
2022/06/24 01:00:21;;;;;;;4.83;1.63;;;26.50;59.80;;;;;;5027512;28;20502;-46
2022/06/24 01:02:48;;;;;;;3.37;1.30;;;26.70;59.00;;;;;;5025875;28;20774;-44
2022/06/24 01:05:16;;;;;;;4.63;1.80;;;26.70;58.70;;;;;;5022010;28;20444;-44
2022/06/24 01:07:41;;;;;;;2.40;1.33;;;26.80;58.70;;;;;;5023155;28;20452;-44
2022/06/24 01:10:09;;;;;;;4.50;1.80;;;26.70;58.90;;;;;;5024226;28;20793;-44
2022/06/24 01:12:36;;;;;;;1.90;1.70;;;26.70;59.10;;;;;;5024256;28;20315;-44
2022/06/24 01:15:05;;;;;;;2.17;1.30;;;26.70;59.00;;;;;;5023655;28;20444;-47
2022/06/24 01:17:31;;;;;;;1.93;1.33;;;26.70;59.10;;;;;;5021516;28;20431;-44
2022/06/24 01:19:57;;;;;;;4.80;1.67;;;26.60;59.20;;;;;;5032457;28;21001;-45
2022/06/24 01:22:24;;;;;;;2.90;1.50;;;26.60;59.20;;;;;;5028932;28;20205;-47
2022/06/24 01:24:50;;;;;;;3.27;1.40;;;26.80;58.90;;;;;;5021657;28;20505;-44
2022/06/24 01:27:17;;;;;;;6.67;1.20;;;26.80;58.70;;;;;;5026997;28;20444;-48
2022/06/24 01:29:43;;;;;;;6.83;1.53;;;26.90;58.50;;;;;;5022337;28;20445;-47
2022/06/24 01:32:09;;;;;;;6.77;1.93;;;26.80;58.30;;;;;;5024379;28;20444;-45
2022/06/24 01:34:35;;;;;;;3.60;1.90;;;26.90;58.10;;;;;;5020795;28;20447;-45
2022/06/24 01:37:01;;;;;;;2.10;1.43;;;26.80;57.90;;;;;;5024675;28;21920;-48
2022/06/24 01:39:27;;;;;;;6.00;1.90;;;26.40;59.30;;;;;;5025406;28;20472;-44
2022/06/24 01:41:54;;;;;;;4.57;1.80;;;26.40;59.20;;;;;;5025276;28;20247;-44
2022/06/24 01:44:22;;;;;;;1.83;1.70;;;26.60;58.90;;;;;;5024063;28;20209;-46
2022/06/24 01:46:48;;;;;;;4.67;1.80;;;26.70;58.80;;;;;;5021356;28;20446;-45
2022/06/24 01:49:14;;;;;;;5.10;2.03;;;26.80;58.50;;;;;;5023805;28;22401;-45
2022/06/24 01:51:41;;;;;;;3.50;1.67;;;26.80;58.50;;;;;;5021909;28;20476;-44
2022/06/24 01:54:07;;;;;;;2.83;1.50;;;26.70;58.60;;;;;;5025875;28;20205;-44
2022/06/24 01:56:33;;;;;;;2.93;1.60;;;26.60;58.70;;;;;;5023400;28;20871;-45
2022/06/24 01:58:58;;;;;;;2.40;1.60;;;26.70;58.60;;;;;;5021289;28;20276;-44
2022/06/24 02:01:24;;;;;;;1.73;1.60;;;26.70;58.70;;;;;;5023410;28;20226;-44
2022/06/24 02:03:50;;;;;;;3.47;1.77;;;26.70;58.50;;;;;;5021097;28;20263;-47
2022/06/24 02:06:20;;;;;;;3.80;1.67;;;26.60;58.30;;;;;;5023713;28;20762;-44
2022/06/24 02:08:46;;;;;;;4.83;2.43;;;26.20;59.00;;;;;;5019969;28;20200;-46
2022/06/24 02:13:58;;;;;;;2.03;1.80;;;26.10;59.80;;;;;;5025589;28;20455;-44
2022/06/24 02:16:25;;;;;;;3.97;2.90;;;25.90;59.60;;;;;;5026639;28;20447;-45
2022/06/24 02:18:52;;;;;;;2.77;2.03;;;25.80;60.20;;;;;;5022536;28;21063;-47
2022/06/24 02:21:17;;;;;;;3.00;2.23;;;25.80;60.70;;;;;;5025936;28;20491;-44
2022/06/24 02:23:43;;;;;;;3.67;1.67;;;25.90;59.90;;;;;;5020556;28;20448;-45
2022/06/24 02:26:09;;;;;;;2.83;1.70;;;25.90;60.00;;;;;;5022428;28;20189;-47
2022/06/24 02:28:35;;;;;;;2.40;1.60;;;25.90;59.90;;;;;;5027146;28;20280;-45
2022/06/24 02:31:02;;;;;;;2.70;1.87;;;26.10;59.70;;;;;;5020184;28;20497;-45
2022/06/24 02:33:29;;;;;;;2.73;1.80;;;26.30;59.20;;;;;;5021640;28;20699;-44
2022/06/24 02:35:54;;;;;;;3.03;1.70;;;26.40;58.90;;;;;;5022492;28;20434;-48
2022/06/24 02:38:20;;;;;;;4.67;1.83;;;26.50;58.60;;;;;;5026092;28;21012;-44
2022/06/24 02:40:46;;;;;;;2.80;1.53;;;26.50;58.30;;;;;;5025428;28;20326;-44
2022/06/24 02:43:26;;;;;;;4.33;1.73;;;26.50;58.20;;;;;;5023845;28;20254;-45
2022/06/24 02:46:03;;;;;;;3.63;2.20;;;26.60;57.90;;;;;;5020085;28;20221;-48
2022/06/24 02:48:30;;;;;;;3.83;1.77;;;26.60;57.80;;;;;;5022321;28;20957;-44
2022/06/24 02:50:58;;;;;;;3.37;1.93;;;26.60;57.90;;;;;;5025257;28;20472;-44
2022/06/24 02:53:24;;;;;;;2.03;1.83;;;26.50;57.80;;;;;;5022236;28;20848;-44
2022/06/24 02:56:00;;;;;;;5.97;1.97;;;26.40;57.80;;;;;;5025809;28;20995;-45
2022/06/24 02:58:26;;;;;;;6.07;2.53;;;26.40;58.30;;;;;;5025889;28;20482;-44
2022/06/24 03:00:52;;;;;;;2.10;1.80;;;26.50;58.10;;;;;;5026759;28;20519;-45
2022/06/24 03:03:19;;;;;;;2.30;1.40;;;26.50;58.10;;;;;;5017926;28;20496;-45
2022/06/24 03:05:46;;;;;;;4.27;2.30;;;26.60;58.10;;;;;;5023499;28;21068;-44
2022/06/24 03:08:13;;;;;;;8.30;2.87;;;26.50;57.90;;;;;;5022823;28;20986;-45
2022/06/24 03:10:40;;;;;;;2.93;1.57;;;26.10;58.70;;;;;;5023218;28;20475;-46
2022/06/24 03:13:06;;;;;;;4.40;2.00;;;26.20;58.90;;;;;;5026265;28;20443;-44
2022/06/24 03:15:32;;;;;;;4.70;2.00;;;26.30;58.70;;;;;;5021660;28;20447;-47
2022/06/24 03:17:58;;;;;;;3.33;2.03;;;26.40;58.50;;;;;;5027429;28;20204;-46
2022/06/24 03:20:24;;;;;;;3.83;2.00;;;26.50;58.00;;;;;;5026297;28;20974;-44
2022/06/24 03:22:50;;;;;;;5.57;2.93;;;26.60;57.80;;;;;;5022380;28;20451;-45
2022/06/24 03:25:16;;;;;;;3.77;1.80;;;26.70;57.40;;;;;;5027331;28;20190;-45
2022/06/24 03:27:41;;;;;;;6.23;2.37;;;26.80;56.90;;;;;;5021533;28;20197;-45
2022/06/24 03:30:09;;;;;;;4.17;2.03;;;26.80;56.50;;;;;;5022326;28;21093;-45
2022/06/24 03:32:35;;;;;;;2.87;2.10;;;26.90;56.30;;;;;;5025030;28;20737;-45
2022/06/24 03:35:01;;;;;;;8.80;2.13;;;26.90;56.00;;;;;;5022304;28;20613;-44
2022/06/24 03:37:28;;;;;;;4.87;2.10;;;26.90;55.90;;;;;;5021505;28;20444;-44
2022/06/24 03:39:54;;;;;;;4.77;2.00;;;26.90;56.30;;;;;;5024403;28;20219;-46
2022/06/24 03:42:19;;;;;;;4.20;1.97;;;26.90;56.40;;;;;;5024458;28;20444;-49
2022/06/24 03:44:45;;;;;;;3.43;1.70;;;26.90;55.90;;;;;;5018991;28;20566;-45
2022/06/24 03:47:10;;;;;;;2.60;2.20;;;27.00;56.00;;;;;;5020846;28;20282;-44
2022/06/24 03:49:36;;;;;;;4.17;2.60;;;27.10;55.80;;;;;;5022932;28;20201;-44
2022/06/24 03:52:02;;;;;;;2.27;2.10;;;27.10;55.60;;;;;;5020688;28;20233;-47
2022/06/24 03:54:27;;;;;;;2.50;1.60;;;27.10;55.40;;;;;;5020955;28;20201;-48
2022/06/24 03:56:53;;;;;;;4.90;2.20;;;27.20;55.30;;;;;;5025409;28;20197;-44
2022/06/24 03:59:19;;;;;;;2.23;1.70;;;27.30;55.10;;;;;;5024758;28;20440;-44
2022/06/24 04:01:44;;;;;;;2.00;1.80;;;27.30;54.70;;;;;;5021881;28;20909;-49
2022/06/24 04:04:10;;;;;;;5.07;2.10;;;27.30;54.50;;;;;;5025246;28;20193;-45
2022/06/24 04:06:35;;;;;;;2.00;1.70;;;27.40;54.40;;;;;;5024845;28;20228;-47
2022/06/24 04:09:01;;;;;;;4.00;1.90;;;27.40;54.60;;;;;;5023360;28;20201;-45
2022/06/24 04:11:27;;;;;;;4.63;2.07;;;27.40;54.70;;;;;;5025199;28;20235;-44
2022/06/24 04:13:52;;;;;;;3.27;1.97;;;27.40;54.50;;;;;;5019192;28;20806;-45
2022/06/24 04:16:18;;;;;;;4.83;2.20;;;27.20;55.00;;;;;;5026252;28;20220;-43
2022/06/24 04:18:44;;;;;;;3.70;1.77;;;27.20;55.10;;;;;;5022812;28;20185;-47
2022/06/24 04:21:14;;;;;;;6.63;1.80;;;27.10;55.10;;;;;;5024658;28;20300;-44
2022/06/24 04:23:40;;;;;;;3.00;2.37;;;27.10;55.90;;;;;;5026501;28;20263;-44
2022/06/24 04:26:06;;;;;;;4.13;2.20;;;27.10;55.30;;;;;;5033147;28;20436;-44
2022/06/24 04:28:32;;;;;;;5.77;2.40;;;27.10;55.50;;;;;;5030085;28;20440;-44
2022/06/24 04:30:57;;;;;;;4.73;2.53;;;27.10;55.30;;;;;;5026641;28;20567;-45
2022/06/24 04:33:23;;;;;;;5.77;2.07;;;27.10;55.30;;;;;;5032848;28;20440;-44
2022/06/24 04:35:49;;;;;;;3.37;2.00;;;27.10;55.40;;;;;;5034014;28;20186;-45
2022/06/24 04:38:15;;;;;;;2.70;2.47;;;27.10;55.30;;;;;;5032503;28;20645;-44
2022/06/24 04:40:41;;;;;;;6.27;2.30;;;27.20;55.20;;;;;;5029157;28;20224;-44
2022/06/24 04:43:10;;;;;;;3.03;1.90;;;26.80;56.20;;;;;;5026988;28;20437;-44
2022/06/24 04:45:36;;;;;;;4.90;3.23;;;26.80;56.30;;;;;;5032863;28;20455;-45
2022/06/24 04:48:03;;;;;;;2.87;2.00;;;26.80;56.00;;;;;;5031729;28;20440;-48
2022/06/24 04:50:29;;;;;;;9.63;2.70;;;26.90;56.10;;;;;;5023501;28;20522;-45
2022/06/24 04:52:55;;;;;;;3.80;2.40;;;26.90;55.80;;;;;;5020701;28;20467;-44
2022/06/24 04:55:21;;;;;;;2.93;1.93;;;27.00;55.60;;;;;;5023581;28;20444;-44
2022/06/24 04:57:47;;;;;;;4.77;2.50;;;26.80;56.00;;;;;;5032397;28;20912;-48
2022/06/24 05:00:13;;;;;;;4.10;2.40;;;26.80;56.00;;;;;;5023102;28;20487;-44
2022/06/24 05:02:41;;;;;;;4.37;3.07;;;26.70;56.30;;;;;;5029469;28;20444;-44
2022/06/24 05:05:11;;;;;;;2.77;2.23;;;26.70;56.20;;;;;;5022705;28;20578;-44
2022/06/24 05:07:37;;;;;;;4.50;2.57;;;26.60;56.40;;;;;;5027032;28;20455;-45
2022/06/24 05:10:03;;;;;;;3.60;2.27;;;26.40;56.70;;;;;;5029455;28;20946;-44
2022/06/24 05:12:29;;;;;;;2.43;2.20;;;26.50;56.70;;;;;;5029831;28;20456;-44
2022/06/24 05:14:56;;;;;;;4.27;2.73;;;26.50;56.70;;;;;;5028289;28;20449;-45
2022/06/24 05:17:22;;;;;;;5.20;2.30;;;26.50;56.80;;;;;;5026621;28;20193;-46
2022/06/24 05:19:47;;;;;;;6.13;2.30;;;26.50;56.80;;;;;;5026168;28;20813;-44
2022/06/24 05:22:13;;;;;;;6.43;2.50;;;26.50;56.90;;;;;;5027520;28;20447;-44
2022/06/24 05:24:38;;;;;;;8.23;2.37;;;26.60;56.80;;;;;;5027177;28;20641;-44
2022/06/24 05:27:04;;;;;;;6.10;2.20;;;26.70;56.50;;;;;;5028621;28;20205;-43
2022/06/24 05:29:30;;;;;;;7.03;2.77;;;26.70;56.30;;;;;;5029226;28;20315;-45
2022/06/24 05:31:55;;;;;;;3.13;1.80;;;26.60;56.40;;;;;;5030738;28;20242;-44
2022/06/24 05:34:21;;;;;;;6.37;2.97;;;26.70;56.60;;;;;;5025739;28;20197;-45
2022/06/24 05:36:47;;;;;;;3.13;2.30;;;26.60;56.30;;;;;;5029218;28;20201;-46
2022/06/24 05:39:13;;;;;;;10.10;3.07;;;26.70;56.40;;;;;;5023727;28;20280;-44
2022/06/24 05:41:41;;;;;;;7.40;2.40;;;26.70;56.10;;;;;;5030110;28;20801;-48
2022/06/24 05:44:07;;;;;;;3.20;2.10;;;26.60;56.10;;;;;;5025548;28;20194;-44
2022/06/24 05:46:32;;;;;;;2.30;2.10;;;26.50;56.30;;;;;;5029372;28;20440;-46
2022/06/24 05:48:58;;;;;;;6.50;2.87;;;26.70;56.50;;;;;;5030464;28;20443;-45
2022/06/24 05:51:25;;;;;;;3.80;2.50;;;26.70;56.30;;;;;;5028324;28;20243;-44
2022/06/24 05:56:35;;;;;;;6.00;2.70;;;26.40;56.90;;;;;;5028910;28;20458;-44
2022/06/24 05:59:01;;;;;;;3.50;2.37;;;26.50;56.80;;;;;;5024902;28;20452;-47
2022/06/24 06:01:27;;;;;;;8.27;2.70;;;26.60;56.40;;;;;;5026922;28;20685;-48
2022/06/24 06:03:54;;;;;;;3.57;2.43;;;26.60;55.80;;;;;;5015383;28;20194;-46
2022/06/24 06:06:20;;;;;;;5.20;3.17;;;26.50;55.70;;;;;;5015778;28;20468;-48
2022/06/24 06:08:45;;;;;;;7.37;2.50;;;25.80;55.30;;;;;;5021101;28;20531;-47
2022/06/24 06:11:16;;;;;;;8.00;2.60;;;25.90;56.30;;;;;;5022824;28;20874;-47
2022/06/24 06:13:43;;;;;;;3.33;2.00;;;26.00;56.60;;;;;;5020901;28;20193;-46
2022/06/24 06:16:10;;;;;;;6.37;2.70;;;25.90;56.40;;;;;;5018271;28;20439;-47
2022/06/24 06:18:36;;;;;;;7.03;2.27;;;25.90;57.20;;;;;;5023138;28;20478;-45
2022/06/24 06:21:07;;;;;;;4.27;2.20;;;26.00;57.20;;;;;;5024027;28;20488;-46
2022/06/24 06:23:33;;;;;;;4.83;2.47;;;26.10;57.30;;;;;;5029722;28;20527;-45
2022/06/24 06:26:01;;;;;;;5.57;2.67;;;26.30;57.40;;;;;;5028607;28;20912;-46
2022/06/24 06:28:27;;;;;;;3.83;2.37;;;26.30;57.10;;;;;;5029612;28;20546;-46
2022/06/24 06:30:53;;;;;;;5.50;2.63;;;26.40;57.00;;;;;;5029694;28;20945;-46
2022/06/24 06:33:19;;;;;;;5.33;2.70;;;26.50;56.90;;;;;;5029850;28;20271;-46
2022/06/24 06:35:45;;;;;;;2.57;2.37;;;26.70;56.20;;;;;;5022222;28;20200;-45
2022/06/24 06:38:11;;;;;;;4.73;2.40;;;26.70;56.10;;;;;;5030077;28;20231;-46
2022/06/24 06:40:37;;;;;;;3.70;2.40;;;26.80;56.50;;;;;;5028243;28;20496;-45
2022/06/24 06:43:05;;;;;;;5.47;2.80;;;26.90;56.00;;;;;;5028818;28;20443;-50
2022/06/24 06:45:31;;;;;;;5.17;2.37;;;26.90;55.40;;;;;;5023884;28;20444;-50
2022/06/24 06:47:57;;;;;;;6.30;3.20;;;27.00;56.30;;;;;;5030342;28;20450;-48
2022/06/24 06:50:23;;;;;;;6.33;2.70;;;27.30;56.20;;;;;;5028285;28;20432;-46
2022/06/24 06:52:48;;;;;;;5.30;2.80;;;27.60;55.70;;;;;;5029507;28;20193;-45
2022/06/24 06:55:14;;;;;;;4.77;2.10;;;27.80;54.40;;;;;;5027002;28;20235;-46
2022/06/24 06:57:40;;;;;;;7.50;2.80;;;27.90;54.00;;;;;;5028751;28;20194;-45
2022/06/24 07:00:06;;;;;;;4.33;2.43;;;28.10;53.90;;;;;;5029267;28;20225;-45
2022/06/24 07:02:32;;;;;;;4.40;2.17;;;28.30;54.00;;;;;;5028258;28;20196;-46
2022/06/24 07:04:58;;;;;;;3.27;2.70;;;28.40;53.40;;;;;;5030207;28;20957;-45
2022/06/24 07:07:24;;;;;;;2.87;2.23;;;28.40;51.20;;;;;;5025880;28;20565;-45
2022/06/24 07:09:51;;;;;;;7.80;2.87;;;28.20;51.80;;;;;;5027961;28;20200;-46
2022/06/24 07:12:17;;;;;;;5.00;2.70;;;28.20;52.10;;;;;;5026742;28;20266;-46
2022/06/24 07:14:43;;;;;;;3.37;2.57;;;28.00;52.10;;;;;;5030438;28;20477;-45
2022/06/24 07:17:09;;;;;;;3.70;2.60;;;28.00;52.40;;;;;;5025527;28;20193;-46
2022/06/24 07:19:35;;;;;;;2.93;2.10;;;28.20;52.70;;;;;;5028435;28;20436;-45
2022/06/24 07:22:02;;;;;;;3.50;2.10;;;28.20;51.70;;;;;;5027087;28;20457;-46
2022/06/24 07:24:27;;;;;;;6.53;3.10;;;28.10;51.60;;;;;;5023965;28;20521;-46
2022/06/24 07:26:53;;;;;;;3.80;2.80;;;28.00;50.70;;;;;;5026588;28;21014;-50
2022/06/24 07:29:19;;;;;;;2.80;2.47;;;27.70;51.60;;;;;;5024933;28;20193;-45
2022/06/24 07:31:47;;;;;;;5.93;2.50;;;27.60;51.60;;;;;;5025037;28;20208;-46
2022/06/24 07:34:14;;;;;;;4.60;2.03;;;27.60;51.80;;;;;;5020680;28;20201;-45
2022/06/24 07:36:40;;;;;;;8.27;3.20;;;27.60;51.60;;;;;;5026620;28;20447;-49
2022/06/24 07:39:06;;;;;;;5.67;2.60;;;27.70;51.40;;;;;;5025781;28;20589;-46
2022/06/24 07:41:31;;;;;;;4.93;2.50;;;27.80;51.10;;;;;;5022294;28;20225;-46
2022/06/24 07:43:57;;;;;;;2.70;2.07;;;27.80;50.50;;;;;;5025366;28;20193;-45
2022/06/24 07:46:23;;;;;;;3.13;2.40;;;27.80;50.20;;;;;;5025797;28;20802;-49
2022/06/24 07:48:48;;;;;;;22.70;3.10;;;27.80;50.60;;;;;;5023816;28;20220;-47
2022/06/24 07:51:16;;;;;;;3.83;2.40;;;28.00;51.30;;;;;;5022258;28;20233;-52
2022/06/24 07:53:45;;;;;;;2.93;2.60;;;28.00;51.00;;;;;;5022307;28;20196;-51
2022/06/24 07:58:55;;;;;;;2.70;2.07;;;28.20;49.80;;;;;;5022590;28;20499;-53
2022/06/24 08:01:21;;;;;;;4.90;3.30;;;27.60;49.80;;;;;;5030051;28;21305;-46
2022/06/24 08:03:47;;;;;;;3.07;2.33;;;27.70;50.20;;;;;;5018059;28;20193;-49
2022/06/24 08:06:12;;;;;;;6.20;2.33;;;27.70;50.10;;;;;;5025400;28;20189;-47
2022/06/24 08:08:38;;;;;;;6.83;2.37;;;27.50;50.30;;;;;;5026705;28;20223;-49
2022/06/24 08:11:04;;;;;;;3.40;2.47;;;27.40;50.40;;;;;;5029420;28;20652;-52
2022/06/24 08:13:30;;;;;;;4.93;2.27;;;27.50;50.40;;;;;;5028480;28;20208;-48
2022/06/24 08:15:56;;;;;;;3.30;2.33;;;27.80;50.40;;;;;;5027541;28;20443;-49
2022/06/24 08:18:23;;;;;;;2.17;1.97;;;28.10;49.40;;;;;;5025731;28;20203;-47
2022/06/24 08:21:28;;;;;;;4.03;2.27;;;28.40;48.80;;;;;;5032492;28;20515;-48
2022/06/24 08:23:53;;;;;;;8.87;2.87;;;28.80;48.20;;;;;;5020117;28;20451;-47
2022/06/24 08:26:18;;;;;;;3.10;2.10;;;29.00;47.30;;;;;;5026016;28;20440;-47
2022/06/24 08:28:44;;;;;;;2.13;1.93;;;29.20;46.30;;;;;;5031803;28;20196;-47
2022/06/24 08:31:10;;;;;;;3.17;2.20;;;29.40;45.60;;;;;;5022635;28;20194;-50
2022/06/24 08:33:36;;;;;;;5.47;2.40;;;29.60;44.80;;;;;;5005433;28;20656;-48
2022/06/24 08:36:02;;;;;;;4.07;1.80;;;29.80;44.30;;;;;;5029192;28;21084;-49
2022/06/24 08:38:28;;;;;;;3.17;2.37;;;29.90;44.00;;;;;;5027696;28;20451;-48
2022/06/24 08:40:54;;;;;;;2.80;2.17;;;30.00;43.60;;;;;;5021754;28;20483;-52
2022/06/24 08:43:23;;;;;;;7.60;2.50;;;29.90;43.20;;;;;;5028322;28;20193;-46
2022/06/24 08:45:49;;;;;;;3.50;2.10;;;29.80;43.70;;;;;;5029403;28;20446;-47
2022/06/24 08:48:15;;;;;;;2.20;2.00;;;30.10;43.80;;;;;;5026661;28;20448;-47
2022/06/24 08:50:41;;;;;;;3.53;1.67;;;30.40;42.40;;;;;;5029133;28;20471;-49
2022/06/24 08:53:09;;;;;;;3.13;1.97;;;30.30;42.40;;;;;;5024536;28;20454;-46
2022/06/24 08:55:36;;;;;;;2.53;1.77;;;30.50;41.80;;;;;;5031087;28;20220;-46
2022/06/24 08:58:12;;;;;;;3.63;2.40;;;30.70;41.70;;;;;;5029644;28;20798;-48
2022/06/24 09:00:39;;;;;;;2.10;1.70;;;30.70;41.00;;;;;;5030498;28;20482;-50
2022/06/24 09:03:06;;;;;;;2.20;1.47;;;30.60;40.60;;;;;;5024887;28;20436;-49
2022/06/24 09:05:32;;;;;;;3.10;2.90;;;30.70;40.10;;;;;;5028605;28;20959;-52
2022/06/24 09:08:12;;;;;;;1.83;1.67;;;30.90;39.50;;;;;;5025262;28;20556;-49
2022/06/24 09:10:40;;;;;;;2.60;1.93;;;31.00;39.20;;;;;;5021949;28;20448;-52
2022/06/24 09:13:06;;;;;;;3.97;1.83;;;30.90;39.40;;;;;;5029998;28;20939;-47
2022/06/24 09:15:32;;;;;;;2.50;1.40;;;30.90;40.10;;;;;;5030170;28;20440;-48
2022/06/24 09:17:59;;;;;;;2.80;1.80;;;31.10;39.50;;;;;;5030918;28;20432;-52
2022/06/24 09:20:28;;;;;;;5.13;2.10;;;31.10;39.00;;;;;;5025158;28;20488;-47
2022/06/24 09:23:05;;;;;;;3.13;1.80;;;31.30;38.90;;;;;;5026608;28;20551;-48
2022/06/24 09:25:48;;;;;;;1.97;1.77;;;31.50;39.00;;;;;;5023531;28;20460;-47
2022/06/24 09:28:39;;;;;;;2.83;1.70;;;31.40;39.90;;;;;;5020023;28;20532;-48
2022/06/24 09:31:07;;;;;;;3.33;1.70;;;31.60;39.50;;;;;;5020701;28;20460;-47
2022/06/24 09:33:38;;;;;;;4.73;1.90;;;31.80;39.30;;;;;;5030923;28;20436;-49
2022/06/24 09:36:06;;;;;;;2.53;1.60;;;31.90;38.90;;;;;;5028725;28;20443;-48
2022/06/24 09:38:32;;;;;;;5.23;2.47;;;32.00;39.50;;;;;;5025300;28;20857;-47
2022/06/24 09:41:05;;;;;;;2.60;2.40;;;32.00;41.20;;;;;;5026995;28;20487;-48
2022/06/24 09:43:51;;;;;;;4.90;2.43;;;32.20;42.30;;;;;;5029623;28;20217;-46
2022/06/24 09:46:26;;;;;;;6.30;2.43;;;32.20;41.80;;;;;;5025554;28;20439;-52
2022/06/24 09:49:18;;;;;;;4.03;2.60;;;32.30;41.70;;;;;;5029924;28;20462;-47
2022/06/24 09:51:45;;;;;;;3.37;2.17;;;32.20;42.40;;;;;;5029169;28;20472;-46
2022/06/24 09:54:17;;;;;;;4.23;2.57;;;32.30;42.70;;;;;;5028498;28;20467;-46
2022/06/24 09:56:46;;;;;;;9.10;2.60;;;32.30;41.90;;;;;;5029168;28;20440;-46
2022/06/24 10:01:59;;;;;;;4.40;2.33;;;32.50;41.50;;;;;;5021518;28;20494;-47
2022/06/24 10:04:26;;;;;;;4.50;2.80;;;32.60;40.90;;;;;;5029876;28;20452;-46
2022/06/24 10:06:54;;;;;;;3.33;2.30;;;32.50;39.70;;;;;;5025716;28;20448;-45
2022/06/24 10:09:25;;;;;;;2.80;2.13;;;32.30;40.60;;;;;;5029501;28;20526;-47
2022/06/24 10:11:54;;;;;;;4.17;2.30;;;32.40;40.80;;;;;;5026276;28;20535;-45
2022/06/24 10:14:20;;;;;;;2.77;1.93;;;32.60;41.10;;;;;;5028980;28;20446;-48
2022/06/24 10:16:48;;;;;;;4.53;2.60;;;32.70;40.10;;;;;;5020858;28;20540;-49
2022/06/24 10:19:16;;;;;;;2.73;2.13;;;32.60;40.50;;;;;;5026787;28;20448;-47
2022/06/24 10:21:42;;;;;;;2.93;2.00;;;32.60;40.20;;;;;;5016153;28;20495;-49
2022/06/24 10:24:16;;;;;;;3.40;2.07;;;33.00;40.00;;;;;;5026709;28;20486;-45
2022/06/24 10:26:46;;;;;;;6.43;2.90;;;33.30;39.50;;;;;;5024238;28;20271;-45
2022/06/24 10:29:15;;;;;;;3.90;1.80;;;33.60;39.70;;;;;;5016260;28;20535;-49
2022/06/24 10:31:44;;;;;;;4.43;2.70;;;33.70;38.40;;;;;;5023847;28;20507;-48
2022/06/24 10:34:25;;;;;;;4.13;2.20;;;33.80;37.80;;;;;;5025189;28;20505;-48
2022/06/24 10:36:59;;;;;;;5.77;2.30;;;33.80;38.10;;;;;;5027705;28;20793;-47
2022/06/24 10:39:28;;;;;;;3.10;2.40;;;33.90;39.00;;;;;;5025339;28;21551;-45
2022/06/24 10:42:06;;;;;;;6.17;2.73;;;33.80;39.30;;;;;;5029483;28;20575;-50
2022/06/24 10:44:37;;;;;;;4.93;2.77;;;33.80;39.30;;;;;;5024158;28;20888;-50
2022/06/24 10:47:08;;;;;;;3.60;2.50;;;33.70;39.30;;;;;;5029295;28;20799;-46
2022/06/24 10:49:52;;;;;;;3.87;3.03;;;33.70;39.30;;;;;;5028765;28;20460;-46
2022/06/24 10:52:33;;;;;;;3.03;2.30;;;33.60;39.50;;;;;;5026898;28;20567;-51
2022/06/24 10:55:17;;;;;;;4.60;2.13;;;33.40;39.10;;;;;;5022101;28;20487;-46
2022/06/24 10:57:56;;;;;;;2.70;2.50;;;33.30;39.20;;;;;;5027719;28;20452;-46
2022/06/24 11:00:27;;;;;;;3.70;2.50;;;33.20;39.50;;;;;;5022547;28;20492;-48
2022/06/24 11:03:15;;;;;;;5.40;2.37;;;33.00;39.40;;;;;;5027052;28;20598;-45
2022/06/24 11:05:42;;;;;;;3.17;2.40;;;33.00;39.40;;;;;;5029329;28;20550;-47
2022/06/24 11:08:19;;;;;;;2.93;2.47;;;33.00;39.50;;;;;;5026334;28;20432;-50
2022/06/24 11:10:49;;;;;;;4.73;2.60;;;33.00;40.00;;;;;;5026474;28;20530;-50
2022/06/24 11:13:15;;;;;;;4.20;2.90;;;33.00;40.90;;;;;;5021400;28;20433;-49
2022/06/24 11:15:47;;;;;;;8.93;3.00;;;32.90;41.30;;;;;;5026322;28;20444;-46
2022/06/24 11:18:23;;;;;;;4.43;3.27;;;32.90;41.30;;;;;;5030120;28;20438;-48
2022/06/24 11:20:56;;;;;;;4.40;2.60;;;32.80;41.50;;;;;;5022555;28;20664;-45
2022/06/24 11:23:24;;;;;;;3.53;2.53;;;32.80;41.70;;;;;;5022517;28;20452;-50
2022/06/24 11:25:52;;;;;;;4.37;2.60;;;32.80;41.50;;;;;;5018964;28;20451;-45
2022/06/24 11:28:26;;;;;;;4.50;2.63;;;32.80;41.20;;;;;;5029555;28;20811;-51
2022/06/24 11:30:55;;;;;;;3.60;2.37;;;32.80;41.30;;;;;;5024489;28;20524;-46
2022/06/24 11:33:22;;;;;;;3.30;2.30;;;32.70;40.50;;;;;;5025706;28;20440;-45
2022/06/24 11:35:49;;;;;;;7.03;2.50;;;32.70;41.30;;;;;;5018767;28;20932;-46
2022/06/24 11:38:16;;;;;;;10.00;3.20;;;32.70;41.00;;;;;;5029193;28;20482;-47
2022/06/24 11:40:42;;;;;;;12.97;3.77;;;32.80;41.20;;;;;;5021529;28;20491;-47
2022/06/24 11:43:13;;;;;;;7.80;2.50;;;32.80;40.70;;;;;;5024007;28;20474;-50
2022/06/24 11:45:43;;;;;;;16.07;3.90;;;32.80;40.10;;;;;;5027371;28;20451;-47
2022/06/24 11:48:18;;;;;;;4.10;2.93;;;32.90;40.50;;;;;;5019689;28;20943;-45
2022/06/24 11:50:43;;;;;;;4.00;2.50;;;32.70;39.90;;;;;;5019711;28;20506;-47
2022/06/24 11:53:09;;;;;;;4.43;2.63;;;32.70;40.30;;;;;;5025461;28;20451;-45
2022/06/24 11:55:37;;;;;;;2.53;2.33;;;32.80;40.80;;;;;;5022431;28;20586;-47
2022/06/24 11:58:05;;;;;;;2.50;2.30;;;32.80;42.00;;;;;;5026717;28;20205;-49
2022/06/24 12:00:36;;;;;;;4.00;2.60;;;32.80;41.80;;;;;;5027618;28;20491;-47
2022/06/24 12:03:07;;;;;;;4.73;2.47;;;32.70;41.90;;;;;;5026687;28;20955;-48
2022/06/24 12:05:33;;;;;;;3.93;2.60;;;32.50;42.20;;;;;;5027055;28;20453;-47
2022/06/24 12:08:01;;;;;;;3.57;2.93;;;32.50;42.10;;;;;;5020102;28;20509;-47
2022/06/24 12:10:27;;;;;;;7.90;3.70;;;32.50;42.00;;;;;;5018904;28;20444;-46
2022/06/24 12:13:00;;;;;;;7.30;2.60;;;32.50;43.10;;;;;;4987896;28;20456;-47
2022/06/24 12:15:33;;;;;;;7.80;2.47;;;32.40;44.90;;;;;;5014635;28;20189;-47
2022/06/24 12:17:59;;;;;;;8.43;3.27;;;32.30;45.10;;;;;;5019037;28;20499;-49
2022/06/24 12:20:28;;;;;;;4.00;2.50;;;32.30;46.00;;;;;;5018943;28;20574;-45
2022/06/24 12:23:15;;;;;;;7.00;3.37;;;32.20;46.30;;;;;;5027619;28;20198;-45
2022/06/24 12:25:42;;;;;;;5.60;3.70;;;31.90;47.30;;;;;;5026477;28;20444;-46
2022/06/24 12:28:24;;;;;;;6.23;3.03;;;31.70;48.10;;;;;;5021715;28;20829;-45
2022/06/24 12:31:01;;;;;;;6.60;3.07;;;31.50;49.20;;;;;;5019130;28;20546;-48
2022/06/24 12:33:29;;;;;;;7.13;3.63;;;31.40;48.60;;;;;;5025883;28;20440;-46
2022/06/24 12:36:11;;;;;;;5.60;3.73;;;31.30;49.30;;;;;;5024520;28;20451;-50
2022/06/24 12:38:42;;;;;;;6.57;3.77;;;31.20;51.40;;;;;;5023292;28;20951;-46
2022/06/24 12:41:13;;;;;;;5.00;3.20;;;30.90;51.50;;;;;;5028927;28;20629;-48
2022/06/24 12:44:01;;;;;;;8.77;3.83;;;30.80;51.70;;;;;;5025352;28;20450;-46
2022/06/24 12:46:33;;;;;;;6.00;3.50;;;30.70;53.00;;;;;;5029199;28;20460;-48
2022/06/24 12:51:46;;;;;;;8.67;2.90;;;30.40;54.90;;;;;;5025959;28;20482;-47
2022/06/24 12:54:14;;;;;;;4.77;2.93;;;30.20;54.30;;;;;;5028141;28;20444;-49
2022/06/24 12:56:41;;;;;;;3.63;3.03;;;30.10;53.90;;;;;;5024878;28;20915;-50
2022/06/24 12:59:07;;;;;;;2.93;2.40;;;30.10;54.20;;;;;;5026819;28;20975;-51
2022/06/24 13:01:44;;;;;;;8.33;3.17;;;30.00;53.10;;;;;;5024767;28;20493;-51
2022/06/24 13:04:11;;;;;;;3.43;2.40;;;29.80;52.30;;;;;;5027806;28;20451;-50
2022/06/24 13:06:37;;;;;;;5.47;3.00;;;29.60;52.10;;;;;;5026176;28;20448;-49